Kotor — J8B5064 — position and weather

sailwx.info

Track history (hours):
 
Tides and Currents Weather Stations Pressure Air Temp Water Temp Dewpoint Dewpoint Depression Visibility Wind Speed Wind Dir Waves Ship Positions

Kotor

Last reported at 2018-Jun-11 16:39 UTC. Time now 2018-Jun-21 17:52 UTC.
Position N 36°26' W 000°40'.
Warning: this ship's position is 10 days out of date.

Length 180 m; draft 9.7 m.

Type: Cargo ship. MMSI: 375074000.

Date/timePositionNaut miles runAvg speedWind from/ knotsBaromVisibWave heightAir tempDewpointWater temp
2018-Jun-11 16:39N 36°26' W 000°40'312.1
2018-Jun-11 16:25N 36°26' W 000°43'21613.1
2018-Jun-10 23:57N 35°59' W 005°09'715.7
2018-Jun-10 23:30N 35°58' W 005°17'815.2
2018-Jun-10 23:00N 35°58' W 005°27'26410.7
2018-Jun-09 22:28N 38°25' W 010°01'612.5
2018-Jun-09 21:59N 38°30' W 010°03'1012.4
2018-Jun-09 21:13N 38°40' W 010°05'512.3
2018-Jun-09 20:50N 38°44' W 010°05'412.2
2018-Jun-09 20:30N 38°48' W 010°05'612.1
2018-Jun-09 20:00N 38°55' W 010°05'612.3
2018-Jun-09 19:30N 39°01' W 010°05'612.4
2018-Jun-09 19:00N 39°07' W 010°05'612.2
2018-Jun-09 18:30N 39°13' W 010°05'59011.9
2018-Jun-07 16:49N 48°36' W 006°01'1813.1
2018-Jun-07 15:25N 48°52' W 005°47'1013.0
2018-Jun-07 14:38N 48°58' W 005°34'8112.2
2018-Jun-07 08:00N 49°40' W 003°48'712.9
2018-Jun-07 07:26N 49°44' W 003°39'612.8
2018-Jun-07 07:00N 49°47' W 003°31'612.3
2018-Jun-07 06:30N 49°52' W 003°25'3 5.4
2018-Jun-07 06:00N 49°54' W 003°23'0 0.7
2018-Jun-07 05:30N 49°54' W 003°23'0 0.6
2018-Jun-07 05:00N 49°54' W 003°22'0 0.5
2018-Jun-07 04:30N 49°54' W 003°22'0 0.5
2018-Jun-07 04:00N 49°53' W 003°21'0 0.4
2018-Jun-07 03:30N 49°54' W 003°21'2 3.0
2018-Jun-07 03:00N 49°54' W 003°19'4 7.1
2018-Jun-07 02:30N 49°54' W 003°13'3 5.1
2018-Jun-07 02:00N 49°54' W 003°09'4 7.9
2018-Jun-07 01:30N 49°55' W 003°04'3 6.9
2018-Jun-07 01:00N 49°57' W 002°59'510.4
2018-Jun-07 00:30N 49°59' W 002°52'611.4
2018-Jun-07 00:00N 50°01' W 002°43'611.4
2018-Jun-06 23:30N 50°03' W 002°35'2011.8
2018-Jun-06 21:49N 50°04' W 002°04'412.5
2018-Jun-06 21:29N 50°03' W 001°57'613.1
2018-Jun-06 21:00N 50°00' W 001°49'713.7
2018-Jun-06 20:30N 49°58' W 001°39'714.1
2018-Jun-06 20:00N 49°54' W 001°29'714.2
2018-Jun-06 19:31N 49°51' W 001°19'714.7
2018-Jun-06 19:00N 49°48' W 001°09'714.3
2018-Jun-06 18:30N 49°45' W 000°59'714.0
2018-Jun-06 18:01N 49°42' W 000°49'713.3
2018-Jun-06 17:30N 49°39' W 000°40'713.0
2018-Jun-06 17:00N 49°37' W 000°30'612.6
2018-Jun-06 16:30N 49°34' W 000°22'612.2
2018-Jun-06 16:00N 49°31' W 000°13'612.1
2018-Jun-06 15:30N 49°29' W 000°05'510.0
2018-Jun-06 15:00N 49°27' E 000°02'611.1
2018-Jun-06 14:30N 49°26' E 000°11'5 9.4
2018-Jun-06 14:01N 49°26' E 000°18'5 9.0
2018-Jun-06 13:30N 49°27' E 000°25'4 8.3
2018-Jun-06 13:00N 49°29' E 000°30'4 7.2
2018-Jun-06 12:31N 49°27' E 000°34'4 7.3
2018-Jun-06 12:00N 49°27' E 000°40'4 9.0
2018-Jun-06 11:30N 49°31' E 000°43'4 7.4
2018-Jun-06 11:01N 49°29' E 000°47'4 8.2
2018-Jun-06 10:31N 49°25' E 000°48'2 4.7
2018-Jun-06 10:00N 49°26' E 000°52'4 7.6
2018-Jun-06 09:30N 49°29' E 000°55'510.4
2018-Jun-06 09:01N 49°24' E 000°55'3 6.7
2018-Jun-06 08:30N 49°21' E 000°59'3 5.8
2018-Jun-06 08:00N 49°24' E 001°01'3 5.2
2018-Jun-06 07:31N 49°26' E 001°02'0 0.7
2018-Jun-06 06:58N 49°26' E 001°03'0 0.0
2018-Jun-06 06:28N 49°26' E 001°03'0 0.0
2018-Jun-06 05:58N 49°26' E 001°03'0 0.0
2018-Jun-06 05:28N 49°26' E 001°03'0 0.0
2018-Jun-06 04:55N 49°26' E 001°03'0 0.0
2018-Jun-06 04:28N 49°26' E 001°03'0 0.0
2018-Jun-06 03:58N 49°26' E 001°03'0 0.0
2018-Jun-06 03:28N 49°26' E 001°03'0 0.0
2018-Jun-06 02:58N 49°26' E 001°03'0 0.2
2018-Jun-06 02:25N 49°26' E 001°03'0 0.0
2018-Jun-06 01:55N 49°26' E 001°03'0 0.0
2018-Jun-06 01:28N 49°26' E 001°03'0 0.0
2018-Jun-06 00:58N 49°26' E 001°03'0 0.0
2018-Jun-06 00:22N 49°26' E 001°03'0 0.0
2018-Jun-05 23:58N 49°26' E 001°03'0 0.0
2018-Jun-05 23:28N 49°26' E 001°03'0 0.0
2018-Jun-05 22:58N 49°26' E 001°03'0 0.0
2018-Jun-05 22:28N 49°26' E 001°03'0 0.0
2018-Jun-05 21:58N 49°26' E 001°03'0 0.0
2018-Jun-05 21:28N 49°26' E 001°03'0 0.0
2018-Jun-05 20:58N 49°26' E 001°03'0 0.0
2018-Jun-05 20:28N 49°26' E 001°03'0 0.0
2018-Jun-05 19:58N 49°26' E 001°03'0 0.0
2018-Jun-05 19:28N 49°26' E 001°03'0 0.0
2018-Jun-05 18:58N 49°26' E 001°03'0 0.0
2018-Jun-05 18:28N 49°26' E 001°03'0 0.0
2018-Jun-05 17:58N 49°26' E 001°03'0 0.0
2018-Jun-05 17:28N 49°26' E 001°03'0 0.0
2018-Jun-05 16:58N 49°26' E 001°03'0 0.0
2018-Jun-05 16:28N 49°26' E 001°03'0 0.0
2018-Jun-05 15:58N 49°26' E 001°03'0 0.0
2018-Jun-05 15:28N 49°26' E 001°03'0 0.0
2018-Jun-05 14:58N 49°26' E 001°03'0 0.0
2018-Jun-05 14:28N 49°26' E 001°03'0 0.0
2018-Jun-05 13:58N 49°26' E 001°03'0 0.0
2018-Jun-05 13:28N 49°26' E 001°03'0 0.0
2018-Jun-05 12:58N 49°26' E 001°03'0 0.0
2018-Jun-05 12:28N 49°26' E 001°03'0 0.0
2018-Jun-05 11:58N 49°26' E 001°03'0 0.0
2018-Jun-05 11:25N 49°26' E 001°03'0 0.0
2018-Jun-05 10:58N 49°26' E 001°03'0 0.0
2018-Jun-05 10:25N 49°26' E 001°03'0 0.0
2018-Jun-05 09:58N 49°26' E 001°03'0 0.0
2018-Jun-05 09:28N 49°26' E 001°03'0 0.0
2018-Jun-05 08:55N 49°26' E 001°03'0 0.0
2018-Jun-05 08:28N 49°26' E 001°03'0 0.0
2018-Jun-05 07:58N 49°26' E 001°03'0 0.0
2018-Jun-05 07:28N 49°26' E 001°03'0 0.0
2018-Jun-05 06:58N 49°26' E 001°03'0 0.0
2018-Jun-05 06:28N 49°26' E 001°03'0 0.0
2018-Jun-05 05:58N 49°26' E 001°03'0 0.0
2018-Jun-05 05:28N 49°26' E 001°03'0 0.0
2018-Jun-05 04:58N 49°26' E 001°03'0 0.0
2018-Jun-05 04:28N 49°26' E 001°03'0 0.0
2018-Jun-05 03:58N 49°26' E 001°03'0 0.0
2018-Jun-05 03:28N 49°26' E 001°03'0 0.0
2018-Jun-05 02:58N 49°26' E 001°03'0 0.0
2018-Jun-05 02:28N 49°26' E 001°03'0 0.0
2018-Jun-05 01:58N 49°26' E 001°03'0 0.0
2018-Jun-05 01:28N 49°26' E 001°03'0 0.0
2018-Jun-05 00:55N 49°26' E 001°03'0 0.0
2018-Jun-05 00:28N 49°26' E 001°03'0 0.0
2018-Jun-04 23:55N 49°26' E 001°03'0 0.0
2018-Jun-04 23:28N 49°26' E 001°03'0 0.0
2018-Jun-04 22:58N 49°26' E 001°03'0 0.0
2018-Jun-04 22:28N 49°26' E 001°03'0 0.0
2018-Jun-04 21:58N 49°26' E 001°03'0 0.0
2018-Jun-04 21:28N 49°26' E 001°03'0 0.0
2018-Jun-04 20:58N 49°26' E 001°03'0 0.0
2018-Jun-04 20:28N 49°26' E 001°03'0 0.0
2018-Jun-04 19:58N 49°26' E 001°03'0 0.0
2018-Jun-04 19:28N 49°26' E 001°03'0 0.0
2018-Jun-04 18:58N 49°26' E 001°03'0 0.0
2018-Jun-04 18:28N 49°26' E 001°03'0 0.0
2018-Jun-04 17:58N 49°26' E 001°03'0 0.0
2018-Jun-04 17:28N 49°26' E 001°03'0 0.0
2018-Jun-04 16:58N 49°26' E 001°03'0 0.0
2018-Jun-04 16:28N 49°26' E 001°03'0 0.0
2018-Jun-04 15:58N 49°26' E 001°03'0 0.0
2018-Jun-04 15:28N 49°26' E 001°03'0 0.0
2018-Jun-04 14:58N 49°26' E 001°03'0 0.0
2018-Jun-04 14:28N 49°26' E 001°03'0 0.0
2018-Jun-04 13:58N 49°26' E 001°03'0 0.0
2018-Jun-04 13:28N 49°26' E 001°03'0 0.0
2018-Jun-04 12:58N 49°26' E 001°03'0 0.0
2018-Jun-04 12:28N 49°26' E 001°03'0 0.0
2018-Jun-04 11:58N 49°26' E 001°03'0 0.0
2018-Jun-04 11:28N 49°26' E 001°03'0 0.0
2018-Jun-04 10:58N 49°26' E 001°03'0 0.0
2018-Jun-04 10:28N 49°26' E 001°03'0 0.0
2018-Jun-04 09:58N 49°26' E 001°03'0 0.0
2018-Jun-04 09:28N 49°26' E 001°03'0 0.0
2018-Jun-04 08:58N 49°26' E 001°03'0 0.0
2018-Jun-04 08:28N 49°26' E 001°03'0 0.0
2018-Jun-04 07:58N 49°26' E 001°03'0 0.0
2018-Jun-04 07:28N 49°26' E 001°03'0 0.0
2018-Jun-04 06:58N 49°26' E 001°03'0 0.0
2018-Jun-04 06:28N 49°26' E 001°03'0 0.0
2018-Jun-04 05:58N 49°26' E 001°03'0 0.0
2018-Jun-04 05:22N 49°26' E 001°03'0 0.0
2018-Jun-04 04:58N 49°26' E 001°03'0 0.0
2018-Jun-04 04:28N 49°26' E 001°03'0 0.0
2018-Jun-04 03:58N 49°26' E 001°03'0 0.0
2018-Jun-04 03:25N 49°26' E 001°03'0 0.0
2018-Jun-04 02:55N 49°26' E 001°03'0 0.0
2018-Jun-04 02:25N 49°26' E 001°03'0 0.0
2018-Jun-04 01:58N 49°26' E 001°03'0 0.0
2018-Jun-04 01:28N 49°26' E 001°03'0 0.0
2018-Jun-04 00:55N 49°26' E 001°03'0 0.0
2018-Jun-04 00:28N 49°26' E 001°03'0 0.0
2018-Jun-03 23:58N 49°26' E 001°03'0 0.0
2018-Jun-03 23:28N 49°26' E 001°03'0 0.0
2018-Jun-03 22:58N 49°26' E 001°03'0 0.0
2018-Jun-03 22:28N 49°26' E 001°03'0 0.0
2018-Jun-03 21:58N 49°26' E 001°03'0 0.0
2018-Jun-03 21:28N 49°26' E 001°03'0 0.0
2018-Jun-03 20:55N 49°26' E 001°03'0 0.0
2018-Jun-03 20:28N 49°26' E 001°03'0 0.0
2018-Jun-03 19:58N 49°26' E 001°03'0 0.0
2018-Jun-03 19:28N 49°26' E 001°03'0 0.0
2018-Jun-03 18:58N 49°26' E 001°03'0 0.0
2018-Jun-03 18:28N 49°26' E 001°03'0 0.0
2018-Jun-03 17:58N 49°26' E 001°03'0 0.0
2018-Jun-03 17:28N 49°26' E 001°03'0 0.0
2018-Jun-03 16:58N 49°26' E 001°03'0 0.0
2018-Jun-03 16:28N 49°26' E 001°03'0 0.0
2018-Jun-03 15:58N 49°26' E 001°03'0 0.0
2018-Jun-03 15:25N 49°26' E 001°03'0 0.0
2018-Jun-03 14:58N 49°26' E 001°03'0 0.0
2018-Jun-03 14:28N 49°26' E 001°03'0 0.0
2018-Jun-03 13:55N 49°26' E 001°03'0 0.0
2018-Jun-03 13:28N 49°26' E 001°03'0 0.0
2018-Jun-03 12:58N 49°26' E 001°03'0 0.0
2018-Jun-03 12:25N 49°26' E 001°03'0 0.0
2018-Jun-03 11:58N 49°26' E 001°03'0 0.0
2018-Jun-03 11:28N 49°26' E 001°03'0 0.0
2018-Jun-03 10:58N 49°26' E 001°03'0 0.0
2018-Jun-03 10:28N 49°26' E 001°03'0 0.0
2018-Jun-03 09:58N 49°26' E 001°03'0 0.0
2018-Jun-03 09:25N 49°26' E 001°03'0 0.0
2018-Jun-03 08:55N 49°26' E 001°03'0 0.0
2018-Jun-03 08:28N 49°26' E 001°03'0 0.0
2018-Jun-03 07:58N 49°26' E 001°03'0 0.0
2018-Jun-03 07:28N 49°26' E 001°03'0 0.0
2018-Jun-03 06:55N 49°26' E 001°03'0 0.0
2018-Jun-03 06:28N 49°26' E 001°03'0 0.0
2018-Jun-03 05:58N 49°26' E 001°03'0 0.0
2018-Jun-03 05:25N 49°26' E 001°03'0 0.0
2018-Jun-03 04:58N 49°26' E 001°03'0 0.0
2018-Jun-03 04:28N 49°26' E 001°03'0 0.0
2018-Jun-03 03:58N 49°26' E 001°03'0 0.0
2018-Jun-03 03:28N 49°26' E 001°03'0 0.0
2018-Jun-03 02:58N 49°26' E 001°03'0 0.0
2018-Jun-03 02:28N 49°26' E 001°03'0 0.0
2018-Jun-03 01:58N 49°26' E 001°03'0 0.0
2018-Jun-03 01:25N 49°26' E 001°03'0 0.0
2018-Jun-03 00:55N 49°26' E 001°03'0 0.0
2018-Jun-03 00:28N 49°26' E 001°03'0 0.0
2018-Jun-02 23:55N 49°26' E 001°03'0 0.0
2018-Jun-02 23:25N 49°26' E 001°03'0 0.0
2018-Jun-02 22:58N 49°26' E 001°03'0 0.0
2018-Jun-02 22:28N 49°26' E 001°03'0 0.0
2018-Jun-02 21:58N 49°26' E 001°03'0 0.0
2018-Jun-02 21:28N 49°26' E 001°03'0 0.0
2018-Jun-02 20:58N 49°26' E 001°03'0 0.0
2018-Jun-02 20:28N 49°26' E 001°03'0 0.0
2018-Jun-02 19:58N 49°26' E 001°03'0 0.0
2018-Jun-02 19:28N 49°26' E 001°03'0 0.0
2018-Jun-02 18:55N 49°26' E 001°03'0 0.0
2018-Jun-02 18:28N 49°26' E 001°03'0 0.0
2018-Jun-02 17:55N 49°26' E 001°03'0 0.0
2018-Jun-02 17:28N 49°26' E 001°03'0 0.0
2018-Jun-02 16:58N 49°26' E 001°03'0 0.0
2018-Jun-02 16:28N 49°26' E 001°03'0 0.0
2018-Jun-02 15:58N 49°26' E 001°03'0 0.0
2018-Jun-02 15:28N 49°26' E 001°03'0 0.0
2018-Jun-02 14:58N 49°26' E 001°03'0 0.0
2018-Jun-02 14:28N 49°26' E 001°03'0 0.0
2018-Jun-02 13:58N 49°26' E 001°03'0 0.0
2018-Jun-02 13:28N 49°26' E 001°03'0 0.0
2018-Jun-02 12:58N 49°26' E 001°03'0 0.0
2018-Jun-02 12:28N 49°26' E 001°03'0 0.0
2018-Jun-02 11:58N 49°26' E 001°03'0 0.0
2018-Jun-02 11:28N 49°26' E 001°03'0 0.0
2018-Jun-02 10:58N 49°26' E 001°03'0 0.0
2018-Jun-02 10:28N 49°26' E 001°03'0 0.0
2018-Jun-02 09:58N 49°26' E 001°03'0 0.0
2018-Jun-02 09:25N 49°26' E 001°03'0 0.0
2018-Jun-02 08:58N 49°26' E 001°03'0 0.0
2018-Jun-02 08:28N 49°26' E 001°03'0 0.0
2018-Jun-02 07:58N 49°26' E 001°03'0 0.0
2018-Jun-02 07:25N 49°26' E 001°03'0 0.0
2018-Jun-02 06:58N 49°26' E 001°03'0 0.0
2018-Jun-02 06:28N 49°26' E 001°03'0 0.0
2018-Jun-02 05:58N 49°26' E 001°03'0 0.0
2018-Jun-02 05:28N 49°26' E 001°03'0 0.0
2018-Jun-02 04:55N 49°26' E 001°03'0 0.0
2018-Jun-02 04:28N 49°26' E 001°03'0 0.0
2018-Jun-02 03:58N 49°26' E 001°03'0 0.0
2018-Jun-02 03:25N 49°26' E 001°03'0 0.0
2018-Jun-02 02:58N 49°26' E 001°03'0 0.0
2018-Jun-02 02:28N 49°26' E 001°03'1 1.5
2018-Jun-02 02:01N 49°26' E 001°02'3 6.7
2018-Jun-02 01:31N 49°23' E 001°01'4 7.1
2018-Jun-02 01:01N 49°21' E 000°56'510.9
2018-Jun-02 00:31N 49°27' E 000°56'3 6.2
2018-Jun-02 00:00N 49°27' E 000°51'3 5.3
2018-Jun-01 23:30N 49°25' E 000°48'510.5
2018-Jun-01 23:01N 49°30' E 000°46'4 8.4
2018-Jun-01 22:30N 49°29' E 000°40'5 9.7
2018-Jun-01 22:00N 49°27' E 000°34'4 8.1
2018-Jun-01 21:30N 49°28' E 000°28'713.9
2018-Jun-01 21:01N 49°26' E 000°18'713.6
2018-Jun-01 20:30N 49°26' E 000°07'612.2
2018-Jun-01 20:01N 49°28' W 000°01'4 8.0
2018-Jun-01 19:30N 49°29' W 000°08'1 1.3
2018-Jun-01 19:00N 49°28' W 000°08'0 0.0
2018-Jun-01 18:30N 49°28' W 000°08'0 0.0
2018-Jun-01 18:00N 49°28' W 000°08'0 0.0
2018-Jun-01 17:30N 49°28' W 000°08'0 0.0
2018-Jun-01 17:00N 49°28' W 000°08'  
Track history (hours):
 
Tides and Currents Weather Stations Pressure Air Temp Water Temp Dewpoint Dewpoint Depression Visibility Wind Speed Wind Dir Waves Ship Positions

Kotor

Last reported at 2018-Jun-11 16:39 UTC. Time now 2018-Jun-21 17:52 UTC.
Position N 36°26' W 000°40'.
Warning: this ship's position is 10 days out of date.

Length 180 m; draft 9.7 m.

Type: Cargo ship. MMSI: 375074000.

Date/timePositionNaut miles runAvg speedWind from/ knotsBaromVisibWave heightAir tempDewpointWater temp
2018-Jun-11 16:39N 36°26' W 000°40'312.1
2018-Jun-11 16:25N 36°26' W 000°43'21613.1
2018-Jun-10 23:57N 35°59' W 005°09'715.7
2018-Jun-10 23:30N 35°58' W 005°17'815.2
2018-Jun-10 23:00N 35°58' W 005°27'26410.7
2018-Jun-09 22:28N 38°25' W 010°01'612.5
2018-Jun-09 21:59N 38°30' W 010°03'1012.4
2018-Jun-09 21:13N 38°40' W 010°05'512.3
2018-Jun-09 20:50N 38°44' W 010°05'412.2
2018-Jun-09 20:30N 38°48' W 010°05'612.1
2018-Jun-09 20:00N 38°55' W 010°05'612.3
2018-Jun-09 19:30N 39°01' W 010°05'612.4
2018-Jun-09 19:00N 39°07' W 010°05'612.2
2018-Jun-09 18:30N 39°13' W 010°05'59011.9
2018-Jun-07 16:49N 48°36' W 006°01'1813.1
2018-Jun-07 15:25N 48°52' W 005°47'1013.0
2018-Jun-07 14:38N 48°58' W 005°34'8112.2
2018-Jun-07 08:00N 49°40' W 003°48'712.9
2018-Jun-07 07:26N 49°44' W 003°39'612.8
2018-Jun-07 07:00N 49°47' W 003°31'612.3
2018-Jun-07 06:30N 49°52' W 003°25'3 5.4
2018-Jun-07 06:00N 49°54' W 003°23'0 0.7
2018-Jun-07 05:30N 49°54' W 003°23'0 0.6
2018-Jun-07 05:00N 49°54' W 003°22'0 0.5
2018-Jun-07 04:30N 49°54' W 003°22'0 0.5
2018-Jun-07 04:00N 49°53' W 003°21'0 0.4
2018-Jun-07 03:30N 49°54' W 003°21'2 3.0
2018-Jun-07 03:00N 49°54' W 003°19'4 7.1
2018-Jun-07 02:30N 49°54' W 003°13'3 5.1
2018-Jun-07 02:00N 49°54' W 003°09'4 7.9
2018-Jun-07 01:30N 49°55' W 003°04'3 6.9
2018-Jun-07 01:00N 49°57' W 002°59'510.4
2018-Jun-07 00:30N 49°59' W 002°52'611.4
2018-Jun-07 00:00N 50°01' W 002°43'611.4
2018-Jun-06 23:30N 50°03' W 002°35'2011.8
2018-Jun-06 21:49N 50°04' W 002°04'412.5
2018-Jun-06 21:29N 50°03' W 001°57'613.1
2018-Jun-06 21:00N 50°00' W 001°49'713.7
2018-Jun-06 20:30N 49°58' W 001°39'714.1
2018-Jun-06 20:00N 49°54' W 001°29'714.2
2018-Jun-06 19:31N 49°51' W 001°19'714.7
2018-Jun-06 19:00N 49°48' W 001°09'714.3
2018-Jun-06 18:30N 49°45' W 000°59'714.0
2018-Jun-06 18:01N 49°42' W 000°49'713.3
2018-Jun-06 17:30N 49°39' W 000°40'713.0
2018-Jun-06 17:00N 49°37' W 000°30'612.6
2018-Jun-06 16:30N 49°34' W 000°22'612.2
2018-Jun-06 16:00N 49°31' W 000°13'612.1
2018-Jun-06 15:30N 49°29' W 000°05'510.0
2018-Jun-06 15:00N 49°27' E 000°02'611.1
2018-Jun-06 14:30N 49°26' E 000°11'5 9.4
2018-Jun-06 14:01N 49°26' E 000°18'5 9.0
2018-Jun-06 13:30N 49°27' E 000°25'4 8.3
2018-Jun-06 13:00N 49°29' E 000°30'4 7.2
2018-Jun-06 12:31N 49°27' E 000°34'4 7.3
2018-Jun-06 12:00N 49°27' E 000°40'4 9.0
2018-Jun-06 11:30N 49°31' E 000°43'4 7.4
2018-Jun-06 11:01N 49°29' E 000°47'4 8.2
2018-Jun-06 10:31N 49°25' E 000°48'2 4.7
2018-Jun-06 10:00N 49°26' E 000°52'4 7.6
2018-Jun-06 09:30N 49°29' E 000°55'510.4
2018-Jun-06 09:01N 49°24' E 000°55'3 6.7
2018-Jun-06 08:30N 49°21' E 000°59'3 5.8
2018-Jun-06 08:00N 49°24' E 001°01'3 5.2
2018-Jun-06 07:31N 49°26' E 001°02'0 0.7
2018-Jun-06 06:58N 49°26' E 001°03'0 0.0
2018-Jun-06 06:28N 49°26' E 001°03'0 0.0
2018-Jun-06 05:58N 49°26' E 001°03'0 0.0
2018-Jun-06 05:28N 49°26' E 001°03'0 0.0
2018-Jun-06 04:55N 49°26' E 001°03'0 0.0
2018-Jun-06 04:28N 49°26' E 001°03'0 0.0
2018-Jun-06 03:58N 49°26' E 001°03'0 0.0
2018-Jun-06 03:28N 49°26' E 001°03'0 0.0
2018-Jun-06 02:58N 49°26' E 001°03'0 0.2
2018-Jun-06 02:25N 49°26' E 001°03'0 0.0
2018-Jun-06 01:55N 49°26' E 001°03'0 0.0
2018-Jun-06 01:28N 49°26' E 001°03'0 0.0
2018-Jun-06 00:58N 49°26' E 001°03'0 0.0
2018-Jun-06 00:22N 49°26' E 001°03'0 0.0
2018-Jun-05 23:58N 49°26' E 001°03'0 0.0
2018-Jun-05 23:28N 49°26' E 001°03'0 0.0
2018-Jun-05 22:58N 49°26' E 001°03'0 0.0
2018-Jun-05 22:28N 49°26' E 001°03'0 0.0
2018-Jun-05 21:58N 49°26' E 001°03'0 0.0
2018-Jun-05 21:28N 49°26' E 001°03'0 0.0
2018-Jun-05 20:58N 49°26' E 001°03'0 0.0
2018-Jun-05 20:28N 49°26' E 001°03'0 0.0
2018-Jun-05 19:58N 49°26' E 001°03'0 0.0
2018-Jun-05 19:28N 49°26' E 001°03'0 0.0
2018-Jun-05 18:58N 49°26' E 001°03'0 0.0
2018-Jun-05 18:28N 49°26' E 001°03'0 0.0
2018-Jun-05 17:58N 49°26' E 001°03'0 0.0
2018-Jun-05 17:28N 49°26' E 001°03'0 0.0
2018-Jun-05 16:58N 49°26' E 001°03'0 0.0
2018-Jun-05 16:28N 49°26' E 001°03'0 0.0
2018-Jun-05 15:58N 49°26' E 001°03'0 0.0
2018-Jun-05 15:28N 49°26' E 001°03'0 0.0
2018-Jun-05 14:58N 49°26' E 001°03'0 0.0
2018-Jun-05 14:28N 49°26' E 001°03'0 0.0
2018-Jun-05 13:58N 49°26' E 001°03'0 0.0
2018-Jun-05 13:28N 49°26' E 001°03'0 0.0
2018-Jun-05 12:58N 49°26' E 001°03'0 0.0
2018-Jun-05 12:28N 49°26' E 001°03'0 0.0
2018-Jun-05 11:58N 49°26' E 001°03'0 0.0
2018-Jun-05 11:25N 49°26' E 001°03'0 0.0
2018-Jun-05 10:58N 49°26' E 001°03'0 0.0
2018-Jun-05 10:25N 49°26' E 001°03'0 0.0
2018-Jun-05 09:58N 49°26' E 001°03'0 0.0
2018-Jun-05 09:28N 49°26' E 001°03'0 0.0
2018-Jun-05 08:55N 49°26' E 001°03'0 0.0
2018-Jun-05 08:28N 49°26' E 001°03'0 0.0
2018-Jun-05 07:58N 49°26' E 001°03'0 0.0
2018-Jun-05 07:28N 49°26' E 001°03'0 0.0
2018-Jun-05 06:58N 49°26' E 001°03'0 0.0
2018-Jun-05 06:28N 49°26' E 001°03'0 0.0
2018-Jun-05 05:58N 49°26' E 001°03'0 0.0
2018-Jun-05 05:28N 49°26' E 001°03'0 0.0
2018-Jun-05 04:58N 49°26' E 001°03'0 0.0
2018-Jun-05 04:28N 49°26' E 001°03'0 0.0
2018-Jun-05 03:58N 49°26' E 001°03'0 0.0
2018-Jun-05 03:28N 49°26' E 001°03'0 0.0
2018-Jun-05 02:58N 49°26' E 001°03'0 0.0
2018-Jun-05 02:28N 49°26' E 001°03'0 0.0
2018-Jun-05 01:58N 49°26' E 001°03'0 0.0
2018-Jun-05 01:28N 49°26' E 001°03'0 0.0
2018-Jun-05 00:55N 49°26' E 001°03'0 0.0
2018-Jun-05 00:28N 49°26' E 001°03'0 0.0
2018-Jun-04 23:55N 49°26' E 001°03'0 0.0
2018-Jun-04 23:28N 49°26' E 001°03'0 0.0
2018-Jun-04 22:58N 49°26' E 001°03'0 0.0
2018-Jun-04 22:28N 49°26' E 001°03'0 0.0
2018-Jun-04 21:58N 49°26' E 001°03'0 0.0
2018-Jun-04 21:28N 49°26' E 001°03'0 0.0
2018-Jun-04 20:58N 49°26' E 001°03'0 0.0
2018-Jun-04 20:28N 49°26' E 001°03'0 0.0
2018-Jun-04 19:58N 49°26' E 001°03'0 0.0
2018-Jun-04 19:28N 49°26' E 001°03'0 0.0
2018-Jun-04 18:58N 49°26' E 001°03'0 0.0
2018-Jun-04 18:28N 49°26' E 001°03'0 0.0
2018-Jun-04 17:58N 49°26' E 001°03'0 0.0
2018-Jun-04 17:28N 49°26' E 001°03'0 0.0
2018-Jun-04 16:58N 49°26' E 001°03'0 0.0
2018-Jun-04 16:28N 49°26' E 001°03'0 0.0
2018-Jun-04 15:58N 49°26' E 001°03'0 0.0
2018-Jun-04 15:28N 49°26' E 001°03'0 0.0
2018-Jun-04 14:58N 49°26' E 001°03'0 0.0
2018-Jun-04 14:28N 49°26' E 001°03'0 0.0
2018-Jun-04 13:58N 49°26' E 001°03'0 0.0
2018-Jun-04 13:28N 49°26' E 001°03'0 0.0
2018-Jun-04 12:58N 49°26' E 001°03'0 0.0
2018-Jun-04 12:28N 49°26' E 001°03'0 0.0
2018-Jun-04 11:58N 49°26' E 001°03'0 0.0
2018-Jun-04 11:28N 49°26' E 001°03'0 0.0
2018-Jun-04 10:58N 49°26' E 001°03'0 0.0
2018-Jun-04 10:28N 49°26' E 001°03'0 0.0
2018-Jun-04 09:58N 49°26' E 001°03'0 0.0
2018-Jun-04 09:28N 49°26' E 001°03'0 0.0
2018-Jun-04 08:58N 49°26' E 001°03'0 0.0
2018-Jun-04 08:28N 49°26' E 001°03'0 0.0
2018-Jun-04 07:58N 49°26' E 001°03'0 0.0
2018-Jun-04 07:28N 49°26' E 001°03'0 0.0
2018-Jun-04 06:58N 49°26' E 001°03'0 0.0
2018-Jun-04 06:28N 49°26' E 001°03'0 0.0
2018-Jun-04 05:58N 49°26' E 001°03'0 0.0
2018-Jun-04 05:22N 49°26' E 001°03'0 0.0
2018-Jun-04 04:58N 49°26' E 001°03'0 0.0
2018-Jun-04 04:28N 49°26' E 001°03'0 0.0
2018-Jun-04 03:58N 49°26' E 001°03'0 0.0
2018-Jun-04 03:25N 49°26' E 001°03'0 0.0
2018-Jun-04 02:55N 49°26' E 001°03'0 0.0
2018-Jun-04 02:25N 49°26' E 001°03'0 0.0
2018-Jun-04 01:58N 49°26' E 001°03'0 0.0
2018-Jun-04 01:28N 49°26' E 001°03'0 0.0
2018-Jun-04 00:55N 49°26' E 001°03'0 0.0
2018-Jun-04 00:28N 49°26' E 001°03'0 0.0
2018-Jun-03 23:58N 49°26' E 001°03'0 0.0
2018-Jun-03 23:28N 49°26' E 001°03'0 0.0
2018-Jun-03 22:58N 49°26' E 001°03'0 0.0
2018-Jun-03 22:28N 49°26' E 001°03'0 0.0
2018-Jun-03 21:58N 49°26' E 001°03'0 0.0
2018-Jun-03 21:28N 49°26' E 001°03'0 0.0
2018-Jun-03 20:55N 49°26' E 001°03'0 0.0
2018-Jun-03 20:28N 49°26' E 001°03'0 0.0
2018-Jun-03 19:58N 49°26' E 001°03'0 0.0
2018-Jun-03 19:28N 49°26' E 001°03'0 0.0
2018-Jun-03 18:58N 49°26' E 001°03'0 0.0
2018-Jun-03 18:28N 49°26' E 001°03'0 0.0
2018-Jun-03 17:58N 49°26' E 001°03'0 0.0
2018-Jun-03 17:28N 49°26' E 001°03'0 0.0
2018-Jun-03 16:58N 49°26' E 001°03'0 0.0
2018-Jun-03 16:28N 49°26' E 001°03'0 0.0
2018-Jun-03 15:58N 49°26' E 001°03'0 0.0
2018-Jun-03 15:25N 49°26' E 001°03'0 0.0
2018-Jun-03 14:58N 49°26' E 001°03'0 0.0
2018-Jun-03 14:28N 49°26' E 001°03'0 0.0
2018-Jun-03 13:55N 49°26' E 001°03'0 0.0
2018-Jun-03 13:28N 49°26' E 001°03'0 0.0
2018-Jun-03 12:58N 49°26' E 001°03'0 0.0
2018-Jun-03 12:25N 49°26' E 001°03'0 0.0
2018-Jun-03 11:58N 49°26' E 001°03'0 0.0
2018-Jun-03 11:28N 49°26' E 001°03'0 0.0
2018-Jun-03 10:58N 49°26' E 001°03'0 0.0
2018-Jun-03 10:28N 49°26' E 001°03'0 0.0
2018-Jun-03 09:58N 49°26' E 001°03'0 0.0
2018-Jun-03 09:25N 49°26' E 001°03'0 0.0
2018-Jun-03 08:55N 49°26' E 001°03'0 0.0
2018-Jun-03 08:28N 49°26' E 001°03'0 0.0
2018-Jun-03 07:58N 49°26' E 001°03'0 0.0
2018-Jun-03 07:28N 49°26' E 001°03'0 0.0
2018-Jun-03 06:55N 49°26' E 001°03'0 0.0
2018-Jun-03 06:28N 49°26' E 001°03'0 0.0
2018-Jun-03 05:58N 49°26' E 001°03'0 0.0
2018-Jun-03 05:25N 49°26' E 001°03'0 0.0
2018-Jun-03 04:58N 49°26' E 001°03'0 0.0
2018-Jun-03 04:28N 49°26' E 001°03'0 0.0
2018-Jun-03 03:58N 49°26' E 001°03'0 0.0
2018-Jun-03 03:28N 49°26' E 001°03'0 0.0
2018-Jun-03 02:58N 49°26' E 001°03'0 0.0
2018-Jun-03 02:28N 49°26' E 001°03'0 0.0
2018-Jun-03 01:58N 49°26' E 001°03'0 0.0
2018-Jun-03 01:25N 49°26' E 001°03'0 0.0
2018-Jun-03 00:55N 49°26' E 001°03'0 0.0
2018-Jun-03 00:28N 49°26' E 001°03'0 0.0
2018-Jun-02 23:55N 49°26' E 001°03'0 0.0
2018-Jun-02 23:25N 49°26' E 001°03'0 0.0
2018-Jun-02 22:58N 49°26' E 001°03'0 0.0
2018-Jun-02 22:28N 49°26' E 001°03'0 0.0
2018-Jun-02 21:58N 49°26' E 001°03'0 0.0
2018-Jun-02 21:28N 49°26' E 001°03'0 0.0
2018-Jun-02 20:58N 49°26' E 001°03'0 0.0
2018-Jun-02 20:28N 49°26' E 001°03'0 0.0
2018-Jun-02 19:58N 49°26' E 001°03'0 0.0
2018-Jun-02 19:28N 49°26' E 001°03'0 0.0
2018-Jun-02 18:55N 49°26' E 001°03'0 0.0
2018-Jun-02 18:28N 49°26' E 001°03'0 0.0
2018-Jun-02 17:55N 49°26' E 001°03'0 0.0
2018-Jun-02 17:28N 49°26' E 001°03'0 0.0
2018-Jun-02 16:58N 49°26' E 001°03'0 0.0
2018-Jun-02 16:28N 49°26' E 001°03'0 0.0
2018-Jun-02 15:58N 49°26' E 001°03'0 0.0
2018-Jun-02 15:28N 49°26' E 001°03'0 0.0
2018-Jun-02 14:58N 49°26' E 001°03'0 0.0
2018-Jun-02 14:28N 49°26' E 001°03'0 0.0
2018-Jun-02 13:58N 49°26' E 001°03'0 0.0
2018-Jun-02 13:28N 49°26' E 001°03'0 0.0
2018-Jun-02 12:58N 49°26' E 001°03'0 0.0
2018-Jun-02 12:28N 49°26' E 001°03'0 0.0
2018-Jun-02 11:58N 49°26' E 001°03'0 0.0
2018-Jun-02 11:28N 49°26' E 001°03'0 0.0
2018-Jun-02 10:58N 49°26' E 001°03'0 0.0
2018-Jun-02 10:28N 49°26' E 001°03'0 0.0
2018-Jun-02 09:58N 49°26' E 001°03'0 0.0
2018-Jun-02 09:25N 49°26' E 001°03'0 0.0
2018-Jun-02 08:58N 49°26' E 001°03'0 0.0
2018-Jun-02 08:28N 49°26' E 001°03'0 0.0
2018-Jun-02 07:58N 49°26' E 001°03'0 0.0
2018-Jun-02 07:25N 49°26' E 001°03'0 0.0
2018-Jun-02 06:58N 49°26' E 001°03'0 0.0
2018-Jun-02 06:28N 49°26' E 001°03'0 0.0
2018-Jun-02 05:58N 49°26' E 001°03'0 0.0
2018-Jun-02 05:28N 49°26' E 001°03'0 0.0
2018-Jun-02 04:55N 49°26' E 001°03'0 0.0
2018-Jun-02 04:28N 49°26' E 001°03'0 0.0
2018-Jun-02 03:58N 49°26' E 001°03'0 0.0
2018-Jun-02 03:25N 49°26' E 001°03'0 0.0
2018-Jun-02 02:58N 49°26' E 001°03'0 0.0
2018-Jun-02 02:28N 49°26' E 001°03'1 1.5
2018-Jun-02 02:01N 49°26' E 001°02'3 6.7
2018-Jun-02 01:31N 49°23' E 001°01'4 7.1
2018-Jun-02 01:01N 49°21' E 000°56'510.9
2018-Jun-02 00:31N 49°27' E 000°56'3 6.2
2018-Jun-02 00:00N 49°27' E 000°51'3 5.3
2018-Jun-01 23:30N 49°25' E 000°48'510.5
2018-Jun-01 23:01N 49°30' E 000°46'4 8.4
2018-Jun-01 22:30N 49°29' E 000°40'5 9.7
2018-Jun-01 22:00N 49°27' E 000°34'4 8.1
2018-Jun-01 21:30N 49°28' E 000°28'713.9
2018-Jun-01 21:01N 49°26' E 000°18'713.6
2018-Jun-01 20:30N 49°26' E 000°07'612.2
2018-Jun-01 20:01N 49°28' W 000°01'4 8.0
2018-Jun-01 19:30N 49°29' W 000°08'1 1.3
2018-Jun-01 19:00N 49°28' W 000°08'0 0.0
2018-Jun-01 18:30N 49°28' W 000°08'0 0.0
2018-Jun-01 18:00N 49°28' W 000°08'0 0.0
2018-Jun-01 17:30N 49°28' W 000°08'0 0.0
2018-Jun-01 17:00N 49°28' W 000°08'  

Dump ship's entire track history